sensor_id;sensor_type;location;lat;lon;timestamp;pressure;altitude;pressure_sealevel;temperature;humidity
16481;BME280;44634;54.110;12.138;2023-03-31T00:01:07;99559.50;;;13.30;100.00
16481;BME280;44634;54.110;12.138;2023-03-31T00:03:36;99564.97;;;13.14;100.00
16481;BME280;44634;54.110;12.138;2023-03-31T00:06:11;99555.84;;;13.46;100.00
16481;BME280;44634;54.110;12.138;2023-03-31T00:08:45;99566.75;;;13.22;100.00
16481;BME280;44634;54.110;12.138;2023-03-31T00:11:17;99591.88;;;13.11;100.00
16481;BME280;44634;54.110;12.138;2023-03-31T00:13:46;99564.72;;;13.38;100.00
16481;BME280;44634;54.110;12.138;2023-03-31T00:16:14;99565.81;;;13.29;100.00
16481;BME280;44634;54.110;12.138;2023-03-31T00:18:43;99576.50;;;13.65;100.00
16481;BME280;44634;54.110;12.138;2023-03-31T00:21:15;99584.78;;;12.74;100.00
16481;BME280;44634;54.110;12.138;2023-03-31T00:23:52;99593.69;;;13.10;100.00
16481;BME280;44634;54.110;12.138;2023-03-31T00:26:21;99601.28;;;12.99;100.00
16481;BME280;44634;54.110;12.138;2023-03-31T00:28:49;99603.75;;;13.15;100.00
16481;BME280;44634;54.110;12.138;2023-03-31T00:31:18;99625.09;;;13.07;100.00
16481;BME280;44634;54.110;12.138;2023-03-31T00:33:47;99602.75;;;13.16;100.00
16481;BME280;44634;54.110;12.138;2023-03-31T00:36:15;99591.09;;;13.25;100.00
16481;BME280;44634;54.110;12.138;2023-03-31T00:38:47;99561.97;;;13.17;100.00
16481;BME280;44634;54.110;12.138;2023-03-31T00:41:14;99562.63;;;13.19;100.00
16481;BME280;44634;54.110;12.138;2023-03-31T00:44:01;99573.25;;;13.34;100.00
16481;BME280;44634;54.110;12.138;2023-03-31T00:46:33;99554.31;;;13.22;100.00
16481;BME280;44634;54.110;12.138;2023-03-31T00:49:03;99568.94;;;13.18;100.00
16481;BME280;44634;54.110;12.138;2023-03-31T00:51:32;99563.81;;;13.17;100.00
16481;BME280;44634;54.110;12.138;2023-03-31T00:54:03;99573.31;;;13.40;100.00
16481;BME280;44634;54.110;12.138;2023-03-31T00:56:36;99559.03;;;13.12;100.00
16481;BME280;44634;54.110;12.138;2023-03-31T00:59:08;99573.09;;;12.98;100.00
16481;BME280;44634;54.110;12.138;2023-03-31T01:01:39;99580.88;;;13.14;100.00
16481;BME280;44634;54.110;12.138;2023-03-31T01:04:12;99597.28;;;13.18;100.00
16481;BME280;44634;54.110;12.138;2023-03-31T01:06:47;99618.81;;;13.23;100.00
16481;BME280;44634;54.110;12.138;2023-03-31T01:09:17;99602.06;;;13.22;100.00
16481;BME280;44634;54.110;12.138;2023-03-31T01:11:46;99618.19;;;13.50;100.00
16481;BME280;44634;54.110;12.138;2023-03-31T01:14:15;99606.66;;;13.28;100.00
16481;BME280;44634;54.110;12.138;2023-03-31T01:16:42;99583.09;;;13.69;100.00
16481;BME280;44634;54.110;12.138;2023-03-31T01:19:30;99574.31;;;13.10;100.00
16481;BME280;44634;54.110;12.138;2023-03-31T01:27:49;99562.25;;;13.22;100.00
16481;BME280;44634;54.110;12.138;2023-03-31T01:33:41;99521.56;;;13.66;100.00
16481;BME280;44634;54.110;12.138;2023-03-31T01:39:50;99497.50;;;14.59;100.00
16481;BME280;44634;54.110;12.138;2023-03-31T01:42:27;99539.13;;;14.03;100.00
16481;BME280;44634;54.110;12.138;2023-03-31T01:45:04;99512.81;;;14.51;100.00
16481;BME280;44634;54.110;12.138;2023-03-31T01:47:36;99536.50;;;13.88;100.00
16481;BME280;44634;54.110;12.138;2023-03-31T01:50:10;99506.22;;;14.04;100.00
16481;BME280;44634;54.110;12.138;2023-03-31T01:52:46;99509.13;;;13.88;100.00
16481;BME280;44634;54.110;12.138;2023-03-31T01:55:21;99509.94;;;13.88;100.00
16481;BME280;44634;54.110;12.138;2023-03-31T01:57:53;99517.69;;;14.47;100.00
16481;BME280;44634;54.110;12.138;2023-03-31T02:00:27;99515.03;;;14.47;100.00
16481;BME280;44634;54.110;12.138;2023-03-31T02:03:02;99530.41;;;14.52;100.00
16481;BME280;44634;54.110;12.138;2023-03-31T02:05:36;99531.56;;;14.71;100.00
16481;BME280;44634;54.110;12.138;2023-03-31T02:08:08;99544.09;;;14.49;100.00
16481;BME280;44634;54.110;12.138;2023-03-31T02:10:40;99521.31;;;13.82;100.00
16481;BME280;44634;54.110;12.138;2023-03-31T02:13:10;99504.88;;;14.36;100.00
16481;BME280;44634;54.110;12.138;2023-03-31T02:15:42;99511.78;;;14.09;100.00
16481;BME280;44634;54.110;12.138;2023-03-31T02:18:15;99507.28;;;14.10;100.00
16481;BME280;44634;54.110;12.138;2023-03-31T02:20:47;99507.91;;;13.69;100.00
16481;BME280;44634;54.110;12.138;2023-03-31T02:23:21;99470.91;;;14.10;100.00
16481;BME280;44634;54.110;12.138;2023-03-31T02:25:58;99456.16;;;13.65;100.00
16481;BME280;44634;54.110;12.138;2023-03-31T02:28:27;99450.78;;;13.58;100.00
16481;BME280;44634;54.110;12.138;2023-03-31T02:31:04;99448.59;;;13.62;100.00
16481;BME280;44634;54.110;12.138;2023-03-31T02:33:34;99453.38;;;13.73;100.00
16481;BME280;44634;54.110;12.138;2023-03-31T02:36:02;99447.94;;;13.60;100.00
16481;BME280;44634;54.110;12.138;2023-03-31T02:38:34;99441.09;;;14.15;100.00
16481;BME280;44634;54.110;12.138;2023-03-31T02:41:05;99458.56;;;14.24;100.00
16481;BME280;44634;54.110;12.138;2023-03-31T02:43:33;99457.53;;;14.25;100.00
16481;BME280;44634;54.110;12.138;2023-03-31T02:46:01;99446.09;;;14.03;100.00
16481;BME280;44634;54.110;12.138;2023-03-31T02:48:31;99445.97;;;14.11;100.00
16481;BME280;44634;54.110;12.138;2023-03-31T02:51:19;99435.53;;;14.10;100.00
16481;BME280;44634;54.110;12.138;2023-03-31T02:54:03;99422.31;;;13.74;100.00
16481;BME280;44634;54.110;12.138;2023-03-31T02:56:51;99433.13;;;13.72;100.00
16481;BME280;44634;54.110;12.138;2023-03-31T02:59:31;99414.28;;;13.88;100.00
16481;BME280;44634;54.110;12.138;2023-03-31T03:02:11;99428.28;;;13.76;100.00
16481;BME280;44634;54.110;12.138;2023-03-31T03:07:47;99420.38;;;13.82;100.00
16481;BME280;44634;54.110;12.138;2023-03-31T03:10:27;99415.31;;;13.66;100.00
16481;BME280;44634;54.110;12.138;2023-03-31T03:13:07;99411.75;;;13.37;100.00
16481;BME280;44634;54.110;12.138;2023-03-31T03:15:39;99421.41;;;13.60;100.00
16481;BME280;44634;54.110;12.138;2023-03-31T03:18:10;99440.59;;;13.11;100.00
16481;BME280;44634;54.110;12.138;2023-03-31T03:20:41;99440.88;;;13.67;100.00
16481;BME280;44634;54.110;12.138;2023-03-31T03:23:13;99443.06;;;13.63;100.00
16481;BME280;44634;54.110;12.138;2023-03-31T03:25:42;99444.28;;;13.25;100.00
16481;BME280;44634;54.110;12.138;2023-03-31T03:28:12;99438.72;;;13.77;100.00
16481;BME280;44634;54.110;12.138;2023-03-31T03:30:40;99436.50;;;13.08;100.00
16481;BME280;44634;54.110;12.138;2023-03-31T03:33:08;99447.44;;;13.50;100.00
16481;BME280;44634;54.110;12.138;2023-03-31T03:35:36;99425.09;;;13.44;100.00
16481;BME280;44634;54.110;12.138;2023-03-31T03:38:04;99421.41;;;13.45;100.00
16481;BME280;44634;54.110;12.138;2023-03-31T03:40:32;99432.56;;;13.34;100.00
16481;BME280;44634;54.110;12.138;2023-03-31T03:42:59;99452.69;;;12.84;100.00
16481;BME280;44634;54.110;12.138;2023-03-31T03:45:28;99488.38;;;13.26;100.00
16481;BME280;44634;54.110;12.138;2023-03-31T03:47:56;99480.69;;;13.01;100.00
16481;BME280;44634;54.110;12.138;2023-03-31T03:50:24;99467.91;;;13.20;100.00
16481;BME280;44634;54.110;12.138;2023-03-31T03:52:52;99437.63;;;13.72;100.00
16481;BME280;44634;54.110;12.138;2023-03-31T03:55:20;99424.41;;;13.35;100.00
16481;BME280;44634;54.110;12.138;2023-03-31T03:57:48;99430.75;;;13.20;100.00
16481;BME280;44634;54.110;12.138;2023-03-31T04:00:16;99415.19;;;13.53;100.00
16481;BME280;44634;54.110;12.138;2023-03-31T04:02:45;99410.25;;;13.50;100.00
16481;BME280;44634;54.110;12.138;2023-03-31T04:05:13;99391.91;;;13.76;100.00
16481;BME280;44634;54.110;12.138;2023-03-31T04:07:41;99388.38;;;13.69;100.00
16481;BME280;44634;54.110;12.138;2023-03-31T04:10:09;99371.00;;;13.94;100.00
16481;BME280;44634;54.110;12.138;2023-03-31T04:12:37;99359.03;;;14.05;100.00
16481;BME280;44634;54.110;12.138;2023-03-31T04:15:06;99361.31;;;14.08;100.00
16481;BME280;44634;54.110;12.138;2023-03-31T04:17:34;99356.19;;;14.07;100.00
16481;BME280;44634;54.110;12.138;2023-03-31T04:20:05;99352.13;;;13.83;100.00
16481;BME280;44634;54.110;12.138;2023-03-31T04:22:35;99354.53;;;13.78;100.00
16481;BME280;44634;54.110;12.138;2023-03-31T04:25:09;99353.28;;;14.02;100.00
16481;BME280;44634;54.110;12.138;2023-03-31T04:27:42;99359.13;;;13.90;100.00
16481;BME280;44634;54.110;12.138;2023-03-31T04:30:13;99359.16;;;13.69;100.00
16481;BME280;44634;54.110;12.138;2023-03-31T04:32:49;99357.31;;;13.69;100.00
16481;BME280;44634;54.110;12.138;2023-03-31T04:35:21;99349.63;;;13.75;100.00
16481;BME280;44634;54.110;12.138;2023-03-31T04:37:50;99339.84;;;14.10;100.00
16481;BME280;44634;54.110;12.138;2023-03-31T04:40:25;99338.84;;;14.17;100.00
16481;BME280;44634;54.110;12.138;2023-03-31T04:42:52;99345.44;;;14.21;100.00
16481;BME280;44634;54.110;12.138;2023-03-31T04:45:20;99334.13;;;13.85;100.00
16481;BME280;44634;54.110;12.138;2023-03-31T04:47:48;99329.34;;;14.02;100.00
16481;BME280;44634;54.110;12.138;2023-03-31T04:50:16;99329.22;;;13.82;100.00
16481;BME280;44634;54.110;12.138;2023-03-31T04:52:45;99326.16;;;13.85;100.00
16481;BME280;44634;54.110;12.138;2023-03-31T04:55:13;99327.88;;;14.27;100.00
16481;BME280;44634;54.110;12.138;2023-03-31T04:57:41;99322.50;;;13.86;100.00
16481;BME280;44634;54.110;12.138;2023-03-31T05:00:10;99328.16;;;14.39;100.00
16481;BME280;44634;54.110;12.138;2023-03-31T05:02:38;99314.00;;;14.32;100.00
16481;BME280;44634;54.110;12.138;2023-03-31T05:05:06;99315.84;;;13.96;100.00
16481;BME280;44634;54.110;12.138;2023-03-31T05:07:34;99314.19;;;13.95;100.00
16481;BME280;44634;54.110;12.138;2023-03-31T05:10:04;99302.41;;;14.80;100.00
16481;BME280;44634;54.110;12.138;2023-03-31T05:12:33;99326.22;;;15.08;100.00
16481;BME280;44634;54.110;12.138;2023-03-31T05:15:05;99363.69;;;14.59;100.00
16481;BME280;44634;54.110;12.138;2023-03-31T05:17:34;99341.28;;;14.12;100.00
16481;BME280;44634;54.110;12.138;2023-03-31T05:20:05;99342.41;;;14.24;100.00
16481;BME280;44634;54.110;12.138;2023-03-31T05:22:35;99343.41;;;14.51;100.00
16481;BME280;44634;54.110;12.138;2023-03-31T05:25:06;99329.25;;;14.16;100.00
16481;BME280;44634;54.110;12.138;2023-03-31T05:27:35;99311.97;;;13.71;100.00
16481;BME280;44634;54.110;12.138;2023-03-31T05:30:04;99290.16;;;14.04;100.00
16481;BME280;44634;54.110;12.138;2023-03-31T05:32:33;99297.22;;;13.90;100.00
16481;BME280;44634;54.110;12.138;2023-03-31T05:35:01;99289.88;;;13.98;100.00
16481;BME280;44634;54.110;12.138;2023-03-31T05:37:30;99288.84;;;13.93;100.00
16481;BME280;44634;54.110;12.138;2023-03-31T05:39:57;99295.06;;;13.51;100.00
16481;BME280;44634;54.110;12.138;2023-03-31T05:42:26;99268.22;;;13.67;100.00
16481;BME280;44634;54.110;12.138;2023-03-31T05:44:54;99267.91;;;13.83;100.00
16481;BME280;44634;54.110;12.138;2023-03-31T05:47:22;99265.88;;;13.85;100.00
16481;BME280;44634;54.110;12.138;2023-03-31T05:49:50;99274.25;;;13.82;100.00
16481;BME280;44634;54.110;12.138;2023-03-31T05:52:18;99281.78;;;13.79;100.00
16481;BME280;44634;54.110;12.138;2023-03-31T05:54:46;99287.94;;;13.58;100.00
16481;BME280;44634;54.110;12.138;2023-03-31T05:57:14;99270.47;;;13.98;100.00
16481;BME280;44634;54.110;12.138;2023-03-31T05:59:43;99273.94;;;13.98;100.00
16481;BME280;44634;54.110;12.138;2023-03-31T06:02:12;99279.63;;;14.30;100.00
16481;BME280;44634;54.110;12.138;2023-03-31T06:04:40;99300.41;;;14.13;100.00
16481;BME280;44634;54.110;12.138;2023-03-31T06:07:09;99287.47;;;13.48;100.00
16481;BME280;44634;54.110;12.138;2023-03-31T06:09:36;99278.94;;;13.80;100.00
16481;BME280;44634;54.110;12.138;2023-03-31T06:12:05;99286.34;;;14.19;100.00
16481;BME280;44634;54.110;12.138;2023-03-31T06:14:33;99283.00;;;13.76;100.00
16481;BME280;44634;54.110;12.138;2023-03-31T06:17:02;99285.75;;;13.89;100.00
16481;BME280;44634;54.110;12.138;2023-03-31T06:19:30;99275.50;;;13.86;100.00
16481;BME280;44634;54.110;12.138;2023-03-31T06:21:58;99271.78;;;13.53;100.00
16481;BME280;44634;54.110;12.138;2023-03-31T06:24:27;99255.47;;;14.18;100.00
16481;BME280;44634;54.110;12.138;2023-03-31T06:26:55;99261.56;;;14.47;100.00
16481;BME280;44634;54.110;12.138;2023-03-31T06:29:22;99283.44;;;14.14;100.00
16481;BME280;44634;54.110;12.138;2023-03-31T06:31:50;99285.91;;;14.16;100.00
16481;BME280;44634;54.110;12.138;2023-03-31T06:34:20;99271.03;;;14.28;100.00
16481;BME280;44634;54.110;12.138;2023-03-31T06:36:48;99282.91;;;14.25;100.00
16481;BME280;44634;54.110;12.138;2023-03-31T06:39:16;99285.91;;;14.50;100.00
16481;BME280;44634;54.110;12.138;2023-03-31T06:41:44;99305.16;;;14.52;100.00
16481;BME280;44634;54.110;12.138;2023-03-31T06:44:11;99300.28;;;14.28;100.00
16481;BME280;44634;54.110;12.138;2023-03-31T06:46:42;99303.41;;;14.38;100.00
16481;BME280;44634;54.110;12.138;2023-03-31T06:49:10;99283.84;;;14.11;100.00
16481;BME280;44634;54.110;12.138;2023-03-31T06:51:39;99292.00;;;14.10;100.00
16481;BME280;44634;54.110;12.138;2023-03-31T06:54:07;99297.63;;;13.93;100.00
16481;BME280;44634;54.110;12.138;2023-03-31T06:56:35;99273.56;;;14.43;100.00
16481;BME280;44634;54.110;12.138;2023-03-31T06:59:02;99276.41;;;14.41;100.00
16481;BME280;44634;54.110;12.138;2023-03-31T07:01:30;99273.53;;;14.36;100.00
16481;BME280;44634;54.110;12.138;2023-03-31T07:04:02;99275.69;;;14.47;100.00
16481;BME280;44634;54.110;12.138;2023-03-31T07:06:30;99288.19;;;14.60;100.00
16481;BME280;44634;54.110;12.138;2023-03-31T07:08:59;99304.72;;;15.10;100.00
16481;BME280;44634;54.110;12.138;2023-03-31T07:11:27;99299.44;;;14.55;100.00
16481;BME280;44634;54.110;12.138;2023-03-31T07:13:55;99308.19;;;15.04;100.00
16481;BME280;44634;54.110;12.138;2023-03-31T07:16:22;99328.69;;;15.10;100.00
16481;BME280;44634;54.110;12.138;2023-03-31T07:18:50;99314.56;;;15.09;100.00
16481;BME280;44634;54.110;12.138;2023-03-31T07:21:20;99350.34;;;14.94;100.00
16481;BME280;44634;54.110;12.138;2023-03-31T07:23:47;99352.81;;;15.02;100.00
16481;BME280;44634;54.110;12.138;2023-03-31T07:26:17;99364.63;;;15.54;100.00
16481;BME280;44634;54.110;12.138;2023-03-31T07:28:44;99371.22;;;14.97;100.00
16481;BME280;44634;54.110;12.138;2023-03-31T07:31:13;99349.69;;;14.85;100.00
16481;BME280;44634;54.110;12.138;2023-03-31T07:33:41;99361.59;;;15.76;100.00
16481;BME280;44634;54.110;12.138;2023-03-31T07:36:09;99414.34;;;15.27;100.00
16481;BME280;44634;54.110;12.138;2023-03-31T07:38:40;99389.94;;;15.16;100.00
16481;BME280;44634;54.110;12.138;2023-03-31T07:41:12;99396.63;;;14.93;100.00
16481;BME280;44634;54.110;12.138;2023-03-31T07:43:42;99388.19;;;15.57;100.00
16481;BME280;44634;54.110;12.138;2023-03-31T07:46:15;99420.28;;;15.29;100.00
16481;BME280;44634;54.110;12.138;2023-03-31T07:48:43;99428.41;;;15.68;100.00
16481;BME280;44634;54.110;12.138;2023-03-31T07:51:13;99430.81;;;15.50;100.00
16481;BME280;44634;54.110;12.138;2023-03-31T07:53:42;99457.41;;;15.37;100.00
16481;BME280;44634;54.110;12.138;2023-03-31T07:56:10;99441.44;;;15.37;100.00
16481;BME280;44634;54.110;12.138;2023-03-31T07:58:38;99467.97;;;15.71;100.00
16481;BME280;44634;54.110;12.138;2023-03-31T08:01:07;99485.28;;;16.28;100.00
16481;BME280;44634;54.110;12.138;2023-03-31T08:03:35;99531.16;;;15.84;100.00
16481;BME280;44634;54.110;12.138;2023-03-31T08:06:03;99505.97;;;16.00;100.00
16481;BME280;44634;54.110;12.138;2023-03-31T08:08:31;99479.25;;;15.67;100.00
16481;BME280;44634;54.110;12.138;2023-03-31T08:10:59;99451.44;;;16.09;100.00
16481;BME280;44634;54.110;12.138;2023-03-31T08:13:27;99430.22;;;15.61;100.00
16481;BME280;44634;54.110;12.138;2023-03-31T08:15:54;99423.09;;;15.88;100.00
16481;BME280;44634;54.110;12.138;2023-03-31T08:18:24;99426.22;;;15.31;100.00
16481;BME280;44634;54.110;12.138;2023-03-31T08:20:51;99355.19;;;14.77;100.00
16481;BME280;44634;54.110;12.138;2023-03-31T08:23:19;99327.00;;;14.96;100.00
16481;BME280;44634;54.110;12.138;2023-03-31T08:25:47;99351.47;;;15.26;100.00
16481;BME280;44634;54.110;12.138;2023-03-31T08:28:15;99355.31;;;15.10;100.00
16481;BME280;44634;54.110;12.138;2023-03-31T08:30:43;99343.03;;;15.15;100.00
16481;BME280;44634;54.110;12.138;2023-03-31T08:33:12;99388.38;;;14.81;100.00
16481;BME280;44634;54.110;12.138;2023-03-31T08:35:41;99359.13;;;15.75;100.00
16481;BME280;44634;54.110;12.138;2023-03-31T08:38:09;99450.19;;;15.98;100.00
16481;BME280;44634;54.110;12.138;2023-03-31T08:40:39;99423.72;;;15.77;100.00
16481;BME280;44634;54.110;12.138;2023-03-31T08:43:11;99408.81;;;15.28;100.00
16481;BME280;44634;54.110;12.138;2023-03-31T08:45:45;99421.19;;;15.49;100.00
16481;BME280;44634;54.110;12.138;2023-03-31T08:48:19;99453.47;;;16.33;100.00
16481;BME280;44634;54.110;12.138;2023-03-31T08:50:55;99429.88;;;15.97;100.00
16481;BME280;44634;54.110;12.138;2023-03-31T08:53:27;99432.88;;;15.55;100.00
16481;BME280;44634;54.110;12.138;2023-03-31T08:55:57;99383.56;;;15.17;100.00
16481;BME280;44634;54.110;12.138;2023-03-31T08:58:33;99366.66;;;14.77;100.00
16481;BME280;44634;54.110;12.138;2023-03-31T09:01:07;99352.34;;;15.59;100.00
16481;BME280;44634;54.110;12.138;2023-03-31T09:03:44;99406.22;;;15.55;100.00
16481;BME280;44634;54.110;12.138;2023-03-31T09:06:19;99386.00;;;16.06;100.00
16481;BME280;44634;54.110;12.138;2023-03-31T09:08:50;99434.19;;;16.51;100.00
16481;BME280;44634;54.110;12.138;2023-03-31T09:11:28;99476.47;;;16.28;100.00
16481;BME280;44634;54.110;12.138;2023-03-31T09:14:26;99505.41;;;16.51;100.00
16481;BME280;44634;54.110;12.138;2023-03-31T09:17:06;99517.88;;;16.63;100.00
16481;BME280;44634;54.110;12.138;2023-03-31T09:19:41;99545.44;;;16.64;100.00
16481;BME280;44634;54.110;12.138;2023-03-31T09:22:16;99531.41;;;16.16;100.00
16481;BME280;44634;54.110;12.138;2023-03-31T09:24:49;99551.97;;;16.22;100.00
16481;BME280;44634;54.110;12.138;2023-03-31T09:27:19;99567.22;;;16.94;100.00
16481;BME280;44634;54.110;12.138;2023-03-31T09:29:50;99585.25;;;17.12;100.00
16481;BME280;44634;54.110;12.138;2023-03-31T09:32:21;99589.22;;;17.74;100.00
16481;BME280;44634;54.110;12.138;2023-03-31T09:34:51;99594.34;;;18.52;100.00
16481;BME280;44634;54.110;12.138;2023-03-31T09:37:26;99619.13;;;17.38;100.00
16481;BME280;44634;54.110;12.138;2023-03-31T09:40:03;99610.25;;;17.50;100.00
16481;BME280;44634;54.110;12.138;2023-03-31T09:42:33;99589.91;;;18.39;100.00
16481;BME280;44634;54.110;12.138;2023-03-31T09:45:02;99623.97;;;17.67;100.00
16481;BME280;44634;54.110;12.138;2023-03-31T09:47:32;99586.63;;;17.34;100.00
16481;BME280;44634;54.110;12.138;2023-03-31T09:50:05;99591.38;;;17.19;100.00
16481;BME280;44634;54.110;12.138;2023-03-31T09:52:37;99594.47;;;17.94;100.00
16481;BME280;44634;54.110;12.138;2023-03-31T09:55:16;99615.94;;;18.25;100.00
16481;BME280;44634;54.110;12.138;2023-03-31T09:58:05;99609.47;;;18.71;100.00
16481;BME280;44634;54.110;12.138;2023-03-31T10:00:34;99615.84;;;17.16;100.00
16481;BME280;44634;54.110;12.138;2023-03-31T10:03:03;99613.97;;;17.30;100.00
16481;BME280;44634;54.110;12.138;2023-03-31T10:05:35;99605.00;;;16.84;100.00
16481;BME280;44634;54.110;12.138;2023-03-31T10:08:28;99585.41;;;17.37;100.00
16481;BME280;44634;54.110;12.138;2023-03-31T10:11:06;99582.19;;;16.88;100.00
16481;BME280;44634;54.110;12.138;2023-03-31T10:13:42;99588.31;;;17.22;100.00
16481;BME280;44634;54.110;12.138;2023-03-31T10:16:12;99592.19;;;17.39;100.00
16481;BME280;44634;54.110;12.138;2023-03-31T10:18:42;99604.50;;;17.34;100.00
16481;BME280;44634;54.110;12.138;2023-03-31T10:21:19;99567.41;;;16.99;100.00
16481;BME280;44634;54.110;12.138;2023-03-31T10:23:49;99581.53;;;16.47;100.00
16481;BME280;44634;54.110;12.138;2023-03-31T10:26:19;99588.31;;;16.49;100.00
16481;BME280;44634;54.110;12.138;2023-03-31T10:28:49;99604.59;;;16.81;100.00
16481;BME280;44634;54.110;12.138;2023-03-31T10:31:19;99589.38;;;16.81;100.00
16481;BME280;44634;54.110;12.138;2023-03-31T10:33:52;99572.09;;;16.51;100.00
16481;BME280;44634;54.110;12.138;2023-03-31T10:36:22;99576.00;;;16.42;100.00
16481;BME280;44634;54.110;12.138;2023-03-31T10:38:54;99579.47;;;16.22;100.00
16481;BME280;44634;54.110;12.138;2023-03-31T10:41:23;99547.66;;;16.21;100.00
16481;BME280;44634;54.110;12.138;2023-03-31T10:43:54;99578.28;;;16.98;100.00
16481;BME280;44634;54.110;12.138;2023-03-31T10:46:39;99594.28;;;17.24;100.00
16481;BME280;44634;54.110;12.138;2023-03-31T10:49:15;99566.59;;;16.72;100.00
16481;BME280;44634;54.110;12.138;2023-03-31T10:51:51;99546.44;;;16.56;100.00
16481;BME280;44634;54.110;12.138;2023-03-31T10:54:21;99552.03;;;16.68;100.00
16481;BME280;44634;54.110;12.138;2023-03-31T10:56:50;99519.13;;;17.01;100.00
16481;BME280;44634;54.110;12.138;2023-03-31T10:59:32;99527.94;;;17.01;100.00
16481;BME280;44634;54.110;12.138;2023-03-31T11:02:19;99543.38;;;17.70;100.00
16481;BME280;44634;54.110;12.138;2023-03-31T11:04:59;99533.69;;;17.63;100.00
16481;BME280;44634;54.110;12.138;2023-03-31T11:07:40;99547.88;;;18.14;100.00
16481;BME280;44634;54.110;12.138;2023-03-31T11:10:36;99567.78;;;18.25;100.00
16481;BME280;44634;54.110;12.138;2023-03-31T11:13:17;99566.44;;;18.91;100.00
16481;BME280;44634;54.110;12.138;2023-03-31T11:15:54;99575.50;;;17.44;100.00
16481;BME280;44634;54.110;12.138;2023-03-31T11:18:34;99559.09;;;17.92;100.00
16481;BME280;44634;54.110;12.138;2023-03-31T11:21:10;99568.34;;;17.96;100.00
16481;BME280;44634;54.110;12.138;2023-03-31T11:23:44;99572.09;;;18.83;100.00
16481;BME280;44634;54.110;12.138;2023-03-31T11:26:21;99568.41;;;18.77;100.00
16481;BME280;44634;54.110;12.138;2023-03-31T11:28:57;99568.50;;;17.49;100.00
16481;BME280;44634;54.110;12.138;2023-03-31T11:31:37;99554.84;;;18.16;100.00
16481;BME280;44634;54.110;12.138;2023-03-31T11:34:22;99569.47;;;18.76;100.00
16481;BME280;44634;54.110;12.138;2023-03-31T11:37:28;99549.56;;;18.34;100.00
16481;BME280;44634;54.110;12.138;2023-03-31T11:40:11;99547.91;;;18.39;100.00
16481;BME280;44634;54.110;12.138;2023-03-31T11:42:48;99552.09;;;17.91;100.00
16481;BME280;44634;54.110;12.138;2023-03-31T11:45:21;99542.44;;;17.90;100.00
16481;BME280;44634;54.110;12.138;2023-03-31T11:47:51;99551.41;;;17.70;100.00
16481;BME280;44634;54.110;12.138;2023-03-31T11:50:23;99540.25;;;17.22;100.00
16481;BME280;44634;54.110;12.138;2023-03-31T11:52:57;99533.72;;;16.98;100.00
16481;BME280;44634;54.110;12.138;2023-03-31T11:55:28;99527.34;;;16.33;100.00
16481;BME280;44634;54.110;12.138;2023-03-31T11:58:02;99505.56;;;17.02;100.00
16481;BME280;44634;54.110;12.138;2023-03-31T12:00:34;99505.38;;;16.44;100.00
16481;BME280;44634;54.110;12.138;2023-03-31T12:03:08;99480.56;;;16.11;100.00
16481;BME280;44634;54.110;12.138;2023-03-31T12:05:41;99491.34;;;17.21;100.00
16481;BME280;44634;54.110;12.138;2023-03-31T12:08:15;99493.41;;;17.13;100.00
16481;BME280;44634;54.110;12.138;2023-03-31T12:10:47;99488.38;;;17.43;100.00
16481;BME280;44634;54.110;12.138;2023-03-31T12:13:30;99486.66;;;17.04;100.00
16481;BME280;44634;54.110;12.138;2023-03-31T12:16:04;99484.03;;;16.18;100.00
16481;BME280;44634;54.110;12.138;2023-03-31T12:18:35;99450.41;;;16.23;100.00
16481;BME280;44634;54.110;12.138;2023-03-31T12:21:05;99425.16;;;15.80;100.00
16481;BME280;44634;54.110;12.138;2023-03-31T12:23:39;99405.84;;;16.44;100.00
16481;BME280;44634;54.110;12.138;2023-03-31T12:26:16;99406.28;;;16.01;100.00
16481;BME280;44634;54.110;12.138;2023-03-31T12:28:54;99407.50;;;16.38;100.00
16481;BME280;44634;54.110;12.138;2023-03-31T12:31:26;99411.63;;;16.27;100.00
16481;BME280;44634;54.110;12.138;2023-03-31T12:33:58;99398.25;;;16.67;100.00
16481;BME280;44634;54.110;12.138;2023-03-31T12:36:41;99441.19;;;17.17;100.00
16481;BME280;44634;54.110;12.138;2023-03-31T12:39:24;99440.06;;;16.93;100.00
16481;BME280;44634;54.110;12.138;2023-03-31T12:42:25;99443.88;;;17.17;100.00
16481;BME280;44634;54.110;12.138;2023-03-31T12:45:05;99412.41;;;16.68;100.00
16481;BME280;44634;54.110;12.138;2023-03-31T12:47:48;99402.31;;;16.63;100.00
16481;BME280;44634;54.110;12.138;2023-03-31T12:50:32;99045.16;;;15.52;100.00
16481;BME280;44634;54.110;12.138;2023-03-31T12:53:11;98900.47;;;15.65;100.00
16481;BME280;44634;54.110;12.138;2023-03-31T12:55:44;98974.59;;;16.06;100.00
16481;BME280;44634;54.110;12.138;2023-03-31T12:58:35;99062.09;;;16.16;100.00
16481;BME280;44634;54.110;12.138;2023-03-31T13:01:07;99057.59;;;15.78;100.00
16481;BME280;44634;54.110;12.138;2023-03-31T13:06:49;99082.50;;;15.97;100.00
16481;BME280;44634;54.110;12.138;2023-03-31T13:09:48;99086.81;;;16.36;100.00
16481;BME280;44634;54.110;12.138;2023-03-31T13:12:21;99105.50;;;16.68;100.00
16481;BME280;44634;54.110;12.138;2023-03-31T13:14:51;99160.81;;;16.85;100.00
16481;BME280;44634;54.110;12.138;2023-03-31T13:17:28;99170.31;;;16.75;100.00
16481;BME280;44634;54.110;12.138;2023-03-31T13:20:15;99144.94;;;16.59;100.00
16481;BME280;44634;54.110;12.138;2023-03-31T13:22:45;99119.59;;;16.75;100.00
16481;BME280;44634;54.110;12.138;2023-03-31T13:25:40;99135.78;;;16.10;100.00